Detall de PIREP

Printer-friendly versionPDF version

[2014/08/24 08:37:00]
Flight IATA:CT3108
Pilot Number:012
Company ICAO:CAT
Aircraft Type:AT72/F
PAX:68
Departing Airport: LIEA
Destination Airport: LEZG
Alternate Airport:LEBL
Online: VATSIM
Route:GINOX M601 MUREN G23 GRAUS
Flight Level:F230
No Slew and time accel
No pause
Crash detect
Detect pilot in Cockpit between each 30 and 45 minutes
08:37 Zero fuel Weight: 41562 Lbs, Fuel Weight: 6609 Lbs
08:37 VATSIM:LIEA 240820Z 29011KT CAVOK 24/14 Q1019
08:37 VATSIM:LEZG 240830Z 31007KT 260V340 CAVOK 19/11 Q1021
08:41 Parking Brakes off
08:46 Take-off
08:46 Take off Weight: 48105 Lbs
08:46 Wind: 288º @ 011 Knots Heading: 208º
08:46 POS N40º 37´ 48´´ E008º 17´ 23´´
08:46 Gear Up: 132 Knots
08:46 Flaps:1 at 132 Knots
08:47 Flaps:0 at 158 Knots
09:01 Wind:280º@032 Knots Heading: 274º Ground Speed: 206 Knots Altitude 17883 ft
09:14 TOC
09:14 Fuel Weight: 5726 Lb
09:16 Wind:273º@042 Knots Heading: 272º Ground Speed: 218 Knots Altitude 23113 ft
09:31 Wind:274º@032 Knots Heading: 277º Ground Speed: 235 Knots Altitude 23172 ft
09:46 Wind:294º@027 Knots Heading: 279º Ground Speed: 244 Knots Altitude 23192 ft
10:01 Wind:293º@032 Knots Heading: 278º Ground Speed: 239 Knots Altitude 23208 ft
10:16 Wind:293º@036 Knots Heading: 297º Ground Speed: 239 Knots Altitude 23205 ft
10:31 Wind:291º@029 Knots Heading: 267º Ground Speed: 245 Knots Altitude 23228 ft
10:31 TOD
10:31 Fuel Weight: 3932 Lb
10:44 Flaps:1 at 174 Knots
10:45 Gear Down: 147 Knots
10:46 Wind:235º@003 Knots Heading: 234º Ground Speed: 135 Knots Altitude 3018 ft
10:46 Flaps:2 at 131 Knots
10:49 TouchDown:Rate -125 ft/min Speed: 115 Knots
10:49 Flaps:0 at 60 Knots
10:50 VATSIM:LEZG 241030Z 35003KT 300V110 CAVOK 22/11 Q1020
10:50 Land
10:50 Wind:302º@003 Knots
10:50 Heading: 304º
10:50 Flight Duration: 02:04
10:50 Landing Weight: 45235 Lbs
10:50 POS N41º 39´ 38´´ W001º 01´ 15´´
10:53 Parking brakes on
10:53 Block to Block Duration: 02:12
10:53 Final Fuel: 3653 Lbls
10:53 Spent Fuel: 2956 Lbls
10:53 Flight Length: 467 NM
10:53 TOD Land Length: 67 NM

Exportar CSV

Powered by Drupal - Modified by Danger4k